Time;durP1;ratioP1;P1;durP2;ratioP2;P2;SDS_P1;SDS_P2;PMS_P1;PMS_P2;Temp;Humidity;BMP_temperature;BMP_pressure;BME280_temperature;BME280_humidity;BME280_pressure;Samples;Min_cycle;Max_cycle;Signal;HPM_P1;HPM_P2
2023/07/20 00:02:09;;;;;;;7.38;5.53;;;;;;;15.40;100.00;101307.72;5032365;28;20033;-49
2023/07/20 00:04:34;;;;;;;7.57;5.50;;;;;;;15.76;100.00;101375.06;5030662;28;20030;-49
2023/07/20 00:07:00;;;;;;;6.18;4.10;;;;;;;15.73;100.00;101380.50;5032392;28;20116;-47
2023/07/20 00:09:26;;;;;;;5.07;4.45;;;;;;;15.34;100.00;101313.28;5032290;28;20099;-47
2023/07/20 00:11:53;;;;;;;6.47;3.95;;;;;;;15.74;100.00;101384.91;5030329;28;20477;-48
2023/07/20 00:14:18;;;;;;;4.47;4.00;;;;;;;15.52;100.00;101328.44;5030785;28;20037;-52
2023/07/20 00:16:46;;;;;;;4.45;3.72;;;;;;;15.40;100.00;101305.06;5032427;28;20029;-47
2023/07/20 00:19:11;;;;;;;4.07;3.47;;;;;;;15.33;100.00;101300.94;5032371;28;20033;-48
2023/07/20 00:21:40;;;;;;;2.78;2.55;;;;;;;15.58;100.00;101373.25;5032243;28;20128;-49
2023/07/20 00:24:06;;;;;;;2.60;2.08;;;;;;;15.01;100.00;101288.25;5032029;28;20059;-50
2023/07/20 00:26:32;;;;;;;5.25;1.85;;;;;;;15.32;100.00;101375.31;5031682;28;20065;-46
2023/07/20 00:28:57;;;;;;;2.28;2.08;;;;;;;15.29;100.00;101380.75;5048540;28;20064;-49
2023/07/20 00:31:23;;;;;;;2.17;1.70;;;;;;;15.21;100.00;101379.25;5039829;28;20220;-51
2023/07/20 00:33:48;;;;;;;1.75;1.65;;;;;;;14.88;100.00;101333.00;5018848;28;20038;-50
2023/07/20 00:36:14;;;;;;;2.00;1.80;;;;;;;15.04;100.00;101396.81;5036494;28;20064;-51
2023/07/20 00:38:39;;;;;;;2.65;1.70;;;;;;;15.01;100.00;101378.38;5036067;28;20037;-47
2023/07/20 00:41:04;;;;;;;2.03;1.73;;;;;;;14.63;100.00;101319.03;5035965;28;20065;-52
2023/07/20 00:43:30;;;;;;;2.13;1.38;;;;;;;14.67;100.00;101333.88;5035937;28;20037;-51
2023/07/20 00:45:55;;;;;;;2.50;1.48;;;;;;;14.87;100.00;101378.97;5036381;28;20037;-51
2023/07/20 00:48:21;;;;;;;1.73;1.50;;;;;;;14.74;100.00;101383.03;5025419;28;20060;-47
2023/07/20 00:50:47;;;;;;;3.53;1.60;;;;;;;14.71;100.00;101369.06;5055798;28;20029;-49
2023/07/20 00:53:13;;;;;;;2.15;1.70;;;;;;;14.70;100.00;101377.94;5037939;28;20044;-52
2023/07/20 00:55:38;;;;;;;1.95;1.85;;;;;;;14.18;100.00;101300.56;5037963;28;20109;-52
2023/07/20 00:58:04;;;;;;;2.88;1.65;;;;;;;14.21;100.00;101313.66;5055516;28;20033;-48
2023/07/20 01:00:29;;;;;;;1.98;1.88;;;;;;;14.21;100.00;101316.31;5055373;28;20033;-50
2023/07/20 01:02:55;;;;;;;2.53;1.67;;;;;;;14.22;100.00;101335.69;5054301;28;20116;-49
2023/07/20 01:05:20;;;;;;;4.68;2.28;;;;;;;14.44;100.00;101385.16;5054460;28;20116;-48
2023/07/20 01:07:52;;;;;;;2.42;1.80;;;;;;;14.46;100.00;101387.72;5037541;28;20025;-49
2023/07/20 01:10:23;;;;;;;2.47;2.28;;;;;;;14.43;100.00;101380.78;5055670;28;20024;-50
2023/07/20 01:12:52;;;;;;;2.25;2.10;;;;;;;14.08;100.00;101334.47;5056082;28;20033;-50
2023/07/20 01:15:17;;;;;;;2.50;2.30;;;;;;;14.06;100.00;101338.09;5055479;28;20139;-50
2023/07/20 01:17:44;;;;;;;2.00;1.90;;;;;;;14.28;100.00;101383.13;5055421;28;20128;-50
2023/07/20 01:20:13;;;;;;;3.40;2.05;;;;;;;13.97;100.00;101317.28;5055282;28;20123;-50
2023/07/20 01:23:06;;;;;;;2.35;2.15;;;;;;;14.36;100.00;101397.81;5033188;28;20034;-47
2023/07/20 01:25:59;;;;;;;2.92;1.90;;;;;;;14.36;100.00;101394.31;5035120;28;20056;-52
2023/07/20 01:28:40;;;;;;;2.72;2.53;;;;;;;13.93;100.00;101321.81;5034991;28;20374;-51
2023/07/20 01:31:22;;;;;;;4.15;2.50;;;;;;;13.91;100.00;101328.09;5033667;28;20025;-48
2023/07/20 01:33:48;;;;;;;3.03;2.70;;;;;;;14.29;100.00;101401.59;5050478;28;20042;-48
2023/07/20 01:36:14;;;;;;;3.20;3.00;;;;;;;13.96;100.00;101348.16;5033736;28;20030;-50
2023/07/20 01:38:40;;;;;;;3.35;3.05;;;;;;;14.28;100.00;101399.88;5052482;28;20040;-47
2023/07/20 01:41:05;;;;;;;2.47;2.25;;;;;;;14.31;100.00;101396.22;5036771;28;20067;-49
2023/07/20 01:43:31;;;;;;;3.60;2.55;;;;;;;14.28;100.00;101389.28;5036181;28;20091;-47
2023/07/20 01:45:56;;;;;;;2.65;2.45;;;;;;;14.34;100.00;101380.25;5054630;28;20091;-50
2023/07/20 01:48:21;;;;;;;2.78;2.58;;;;;;;14.48;100.00;101402.63;5020455;28;20041;-47
2023/07/20 01:50:47;;;;;;;3.58;2.78;;;;;;;14.06;100.00;101330.16;5054630;28;20042;-48
2023/07/20 01:53:13;;;;;;;3.33;3.03;;;;;;;14.44;100.00;101402.81;5054502;28;20032;-47
2023/07/20 01:55:38;;;;;;;3.50;3.20;;;;;;;14.43;100.00;101398.44;5053217;28;20043;-46
2023/07/20 01:58:04;;;;;;;3.53;3.20;;;;;;;14.49;100.00;101407.00;5036471;28;20032;-48
2023/07/20 02:00:29;;;;;;;4.18;3.58;;;;;;;14.56;100.00;101397.88;5036585;28;20036;-50
2023/07/20 02:02:55;;;;;;;4.03;3.72;;;;;;;14.58;100.00;101408.44;5054602;28;20033;-48
2023/07/20 02:05:20;;;;;;;4.70;3.70;;;;;;;14.56;100.00;101402.34;5036540;28;20032;-48
2023/07/20 02:07:45;;;;;;;4.18;3.78;;;;;;;14.21;100.00;101358.69;5053199;28;20563;-50
2023/07/20 02:10:11;;;;;;;4.75;3.85;;;;;;;14.08;100.00;101333.59;5054074;28;20093;-51
2023/07/20 02:12:36;;;;;;;3.83;3.53;;;;;;;14.37;100.00;101393.38;5053000;28;20039;-49
2023/07/20 02:15:02;;;;;;;4.10;3.15;;;;;;;14.42;100.00;101415.25;5054046;28;20033;-48
2023/07/20 02:17:28;;;;;;;3.72;3.42;;;;;;;14.43;100.00;101401.09;5053932;28;20044;-45
2023/07/20 02:19:54;;;;;;;5.60;3.88;;;;;;;14.45;100.00;101392.16;5054143;28;20076;-50
2023/07/20 02:22:20;;;;;;;4.93;3.85;;;;;;;14.46;100.00;101382.44;5036287;28;20040;-48
2023/07/20 02:24:45;;;;;;;3.83;3.40;;;;;;;14.64;100.00;101411.72;5053918;28;20033;-48
2023/07/20 02:27:11;;;;;;;4.00;3.47;;;;;;;14.64;100.00;101410.84;5035914;28;20035;-47
2023/07/20 02:29:36;;;;;;;3.70;3.40;;;;;;;14.25;100.00;101331.13;5034544;28;20053;-49
2023/07/20 02:32:02;;;;;;;4.15;3.85;;;;;;;14.65;100.00;101410.78;5034113;28;20397;-49
2023/07/20 02:34:27;;;;;;;3.67;3.38;;;;;;;14.04;100.00;101311.66;5034253;28;20029;-48
2023/07/20 02:36:53;;;;;;;4.85;4.45;;;;;;;14.53;100.00;101397.16;5033764;28;20044;-49
2023/07/20 02:39:18;;;;;;;4.30;3.90;;;;;;;14.30;100.00;101360.94;5032532;28;20404;-49
2023/07/20 02:41:44;;;;;;;3.90;3.50;;;;;;;14.08;100.00;101330.94;5033780;28;20045;-47
2023/07/20 02:44:09;;;;;;;3.75;3.47;;;;;;;13.94;100.00;101327.97;5033649;28;20041;-47
2023/07/20 02:46:35;;;;;;;4.30;4.00;;;;;;;14.29;100.00;101398.97;5051905;28;20067;-49
2023/07/20 02:49:01;;;;;;;5.18;4.70;;;;;;;14.07;100.00;101372.44;5036222;28;20128;-51
2023/07/20 02:51:26;;;;;;;5.00;4.50;;;;;;;13.79;100.00;101339.13;5054091;28;20029;-54
2023/07/20 02:53:51;;;;;;;4.43;4.03;;;;;;;14.17;100.00;101414.44;5053319;28;20041;-53
2023/07/20 02:56:17;;;;;;;5.15;4.65;;;;;;;14.11;100.00;101399.66;5054034;28;20414;-49
2023/07/20 02:58:43;;;;;;;5.38;4.78;;;;;;;13.64;100.00;101332.63;5053316;28;20037;-48
2023/07/20 03:01:09;;;;;;;6.88;4.78;;;;;;;14.08;100.00;101415.66;5053433;28;20039;-48
2023/07/20 03:03:38;;;;;;;7.40;4.70;;;;;;;14.04;100.00;101412.25;5052322;28;20037;-49
2023/07/20 03:06:04;;;;;;;5.07;4.63;;;;;;;13.61;100.00;101345.97;5053244;28;20029;-48
2023/07/20 03:08:29;;;;;;;6.65;4.32;;;;;;;13.92;100.00;101425.94;5052980;28;20044;-48
2023/07/20 03:10:55;;;;;;;4.53;4.13;;;;;;;13.79;100.00;101408.78;5053144;28;20037;-48
2023/07/20 03:13:20;;;;;;;5.40;4.72;;;;;;;13.36;100.00;101348.66;5051828;28;20126;-51
2023/07/20 03:15:46;;;;;;;5.95;5.35;;;;;;;13.76;100.00;101427.44;5053026;28;20484;-47
2023/07/20 03:18:11;;;;;;;6.25;5.70;;;;;;;13.73;100.00;101427.53;5053170;28;20044;-47
2023/07/20 03:20:38;;;;;;;5.47;4.47;;;;;;;13.38;100.00;101367.97;5032989;28;20469;-51
2023/07/20 03:23:03;;;;;;;5.57;5.13;;;;;;;13.69;100.00;101425.91;5033062;28;20068;-46
2023/07/20 03:25:29;;;;;;;5.45;4.32;;;;;;;13.70;100.00;101429.44;5032874;28;20053;-50
2023/07/20 03:27:54;;;;;;;4.80;4.40;;;;;;;13.63;100.00;101435.88;5032868;28;20040;-47
2023/07/20 03:30:19;;;;;;;5.90;5.15;;;;;;;13.25;100.00;101368.47;5048196;28;20033;-50
2023/07/20 03:32:45;;;;;;;4.93;4.43;;;;;;;13.27;100.00;101383.34;5032957;28;20124;-51
2023/07/20 03:35:10;;;;;;;6.35;4.35;;;;;;;13.53;100.00;101428.25;5032901;28;20116;-51
2023/07/20 03:37:36;;;;;;;5.00;4.60;;;;;;;13.63;100.00;101446.44;5032302;28;20045;-49
2023/07/20 03:40:02;;;;;;;4.60;4.22;;;;;;;13.53;100.00;101436.19;5032647;28;20033;-49
2023/07/20 03:42:28;;;;;;;4.35;3.90;;;;;;;13.62;100.00;101442.94;5032488;28;20127;-49
2023/07/20 03:44:53;;;;;;;4.80;4.05;;;;;;;13.17;100.00;101368.72;5032590;28;20068;-47
2023/07/20 03:47:19;;;;;;;3.72;3.42;;;;;;;13.46;100.00;101424.09;5032732;28;20041;-49
2023/07/20 03:49:44;;;;;;;4.07;3.63;;;;;;;13.52;100.00;101445.03;5032583;28;20032;-52
2023/07/20 03:52:09;;;;;;;5.25;3.80;;;;;;;13.07;100.00;101371.69;5032994;28;20048;-51
2023/07/20 03:54:35;;;;;;;5.00;4.50;;;;;;;13.47;100.00;101448.75;5048492;28;20041;-51
2023/07/20 03:57:00;;;;;;;4.38;3.97;;;;;;;13.47;100.00;101446.13;5052220;28;20083;-49
2023/07/20 03:59:26;;;;;;;4.45;4.05;;;;;;;13.44;100.00;101433.88;5052064;28;20029;-50
2023/07/20 04:01:51;;;;;;;7.90;4.80;;;;;;;13.38;100.00;101443.78;5034526;28;20507;-49
2023/07/20 04:04:17;;;;;;;4.80;4.00;;;;;;;13.06;100.00;101375.25;5052314;28;20520;-56
2023/07/20 04:06:44;;;;;;;5.90;4.15;;;;;;;13.47;100.00;101439.03;5051694;28;20110;-54
2023/07/20 04:09:10;;;;;;;5.00;4.13;;;;;;;13.04;100.00;101362.09;5048471;28;20405;-51
2023/07/20 04:11:36;;;;;;;4.57;4.18;;;;;;;13.38;100.00;101422.63;5047570;28;20120;-49
2023/07/20 04:14:01;;;;;;;4.10;3.65;;;;;;;13.16;100.00;101385.50;5032098;28;20139;-49
2023/07/20 04:16:27;;;;;;;4.43;4.03;;;;;;;13.54;100.00;101443.19;5032386;28;20116;-51
2023/07/20 04:18:52;;;;;;;5.07;4.28;;;;;;;13.22;100.00;101365.94;5032198;28;20044;-51
2023/07/20 04:21:17;;;;;;;4.68;4.20;;;;;;;13.76;100.00;101451.25;5030315;28;20072;-51
2023/07/20 04:23:42;;;;;;;4.97;4.47;;;;;;;13.51;100.00;101371.03;5032528;28;20045;-47
2023/07/20 04:26:08;;;;;;;5.10;4.57;;;;;;;14.03;100.00;101439.66;5031621;28;20088;-49
2023/07/20 04:28:33;;;;;;;6.05;5.45;;;;;;;14.23;100.00;101451.28;5030590;28;20103;-51
2023/07/20 04:31:12;;;;;;;4.85;4.35;;;;;;;14.36;100.00;101453.44;5032115;28;20044;-48
2023/07/20 04:33:38;;;;;;;5.40;4.78;;;;;;;14.49;100.00;101460.00;5047468;28;20083;-48
2023/07/20 04:36:04;;;;;;;4.90;4.43;;;;;;;14.09;100.00;101370.59;5040675;28;20037;-48
2023/07/20 04:38:29;;;;;;;4.13;3.83;;;;;;;14.61;100.00;101454.22;5051777;28;20037;-48
2023/07/20 04:40:55;;;;;;;6.25;5.00;;;;;;;14.62;100.00;101455.09;5051780;28;20120;-48
2023/07/20 04:43:20;;;;;;;9.95;4.97;;;;;;;14.72;100.00;101461.75;5052005;28;20037;-50
2023/07/20 04:45:45;;;;;;;5.00;4.50;;;;;;;14.63;100.00;101449.72;5052012;28;20029;-49
2023/07/20 04:48:15;;;;;;;6.47;4.85;;;;;;;14.79;100.00;101475.63;5051740;28;20492;-49
2023/07/20 04:50:41;;;;;;;4.90;4.50;;;;;;;14.41;100.00;101397.66;5034036;28;20033;-48
2023/07/20 04:53:06;;;;;;;6.05;4.93;;;;;;;14.46;100.00;101403.63;5041934;28;20117;-47
2023/07/20 04:55:33;;;;;;;4.50;4.10;;;;;;;14.82;100.00;101460.47;5031714;28;20209;-47
2023/07/20 04:58:00;;;;;;;5.07;4.55;;;;;;;14.96;100.00;101470.50;5031987;28;20026;-49
2023/07/20 05:00:25;;;;;;;4.53;4.13;;;;;;;14.64;100.00;101401.13;5031813;28;20386;-48
2023/07/20 05:02:51;;;;;;;5.78;4.80;;;;;;;15.06;100.00;101462.09;5047067;28;20049;-48
2023/07/20 05:05:16;;;;;;;4.47;4.07;;;;;;;15.19;100.00;101465.13;5031670;28;20036;-49
2023/07/20 05:07:41;;;;;;;4.05;3.67;;;;;;;15.09;100.00;101437.28;5031628;28;20120;-50
2023/07/20 05:10:07;;;;;;;4.70;4.30;;;;;;;14.75;100.00;101395.38;5031148;28;20108;-51
2023/07/20 05:12:33;;;;;;;6.38;5.03;;;;;;;15.07;100.00;101460.31;5046979;28;20107;-49
2023/07/20 05:14:58;;;;;;;4.75;4.25;;;;;;;14.69;100.00;101403.56;5031506;28;20473;-47
2023/07/20 05:17:24;;;;;;;4.95;4.22;;;;;;;15.03;100.00;101462.22;5033582;28;20049;-48
2023/07/20 05:19:50;;;;;;;6.18;5.35;;;;;;;14.72;100.00;101413.16;5035252;28;20045;-51
2023/07/20 05:22:15;;;;;;;5.53;5.00;;;;;;;15.04;100.00;101460.44;5035088;28;20435;-53
2023/07/20 05:24:41;;;;;;;5.43;5.00;;;;;;;14.91;100.00;101451.28;5034764;28;20558;-51
2023/07/20 05:27:06;;;;;;;5.15;4.65;;;;;;;14.64;100.00;101392.28;5034256;28;20045;-46
2023/07/20 05:29:32;;;;;;;5.35;4.95;;;;;;;14.65;100.00;101391.38;5034852;28;20053;-49
2023/07/20 05:31:58;;;;;;;5.97;5.43;;;;;;;14.65;100.00;101396.69;5035091;28;20095;-51
2023/07/20 05:34:23;;;;;;;6.80;5.35;;;;;;;14.64;100.00;101401.13;5050660;28;20037;-46
2023/07/20 05:36:49;;;;;;;4.90;4.40;;;;;;;15.02;100.00;101454.34;5034712;28;20047;-48
2023/07/20 05:39:16;;;;;;;5.03;4.63;;;;;;;15.05;100.00;101459.53;5050097;28;20029;-46
2023/07/20 05:41:42;;;;;;;6.40;5.78;;;;;;;15.17;100.00;101478.47;5033669;28;20034;-47
2023/07/20 05:44:07;;;;;;;4.80;4.40;;;;;;;15.29;100.00;101460.31;5052019;28;20037;-47
2023/07/20 05:46:32;;;;;;;4.80;4.40;;;;;;;15.35;100.00;101462.69;5036554;28;20397;-45
2023/07/20 05:48:58;;;;;;;4.45;3.95;;;;;;;15.04;100.00;101399.47;5054477;28;20099;-47
2023/07/20 05:51:23;;;;;;;3.63;3.33;;;;;;;15.46;100.00;101445.41;5054456;28;20041;-49
2023/07/20 05:53:48;;;;;;;2.85;2.58;;;;;;;15.42;100.00;101454.41;5054361;28;20443;-50
2023/07/20 05:56:14;;;;;;;3.72;2.70;;;;;;;15.45;100.00;101443.66;5054152;28;20098;-48
2023/07/20 05:58:39;;;;;;;3.17;1.55;;;;;;;15.54;100.00;101466.31;5054406;28;20072;-49
2023/07/20 06:01:07;;;;;;;2.38;1.80;;;;;;;15.07;100.00;101376.34;5045709;28;20029;-48
2023/07/20 06:03:37;;;;;;;2.95;1.50;;;;;;;15.41;100.00;101426.13;5034530;28;20366;-50
2023/07/20 06:06:04;;;;;;;2.15;1.27;;;;;;;15.59;100.00;101451.91;5034269;28;20080;-47
2023/07/20 06:08:29;;;;;;;2.95;1.50;;;;;;;15.65;100.00;101442.81;5034063;28;20083;-47
2023/07/20 06:10:55;;;;;;;1.65;1.15;;;;;;;15.80;100.00;101447.47;5034015;28;20056;-48
2023/07/20 06:13:20;;;;;;;2.03;1.50;;;;;;;15.83;100.00;101442.03;5049316;28;20035;-49
2023/07/20 06:15:47;;;;;;;2.60;0.90;;;;;;;15.62;100.00;101409.31;5036741;28;20064;-52
2023/07/20 06:18:12;;;;;;;1.73;1.63;;;;;;;16.03;100.00;101457.06;5053183;28;20463;-48
2023/07/20 06:20:38;;;;;;;1.23;1.02;;;;;;;16.10;100.00;101472.66;5036224;28;20041;-47
2023/07/20 06:23:03;;;;;;;2.65;1.20;;;;;;;15.95;100.00;101425.56;5054296;28;20033;-49
2023/07/20 06:25:28;;;;;;;1.50;0.70;;;;;;;16.23;100.00;101471.16;5053820;28;20044;-51
2023/07/20 06:27:55;;;;;;;0.80;0.80;;;;;;;16.34;100.00;101476.84;5053279;28;20189;-52
2023/07/20 06:30:20;;;;;;;1.83;0.65;;;;;;;16.29;100.00;101444.31;5052333;28;20033;-48
2023/07/20 06:32:46;;;;;;;1.67;0.82;;;;;;;16.46;100.00;101469.25;5046415;28;20556;-46
2023/07/20 06:35:11;;;;;;;1.83;0.90;;;;;;;16.64;100.00;101471.06;5046729;28;20052;-50
2023/07/20 06:37:36;;;;;;;1.67;0.90;;;;;;;16.42;100.00;101436.66;5033360;28;20094;-48
2023/07/20 06:40:03;;;;;;;1.80;0.57;;;;;;;16.65;100.00;101472.78;5048672;28;20408;-51
2023/07/20 06:42:29;;;;;;;1.10;1.00;;;;;;;16.73;100.00;101476.81;5040515;28;20037;-52
2023/07/20 06:44:54;;;;;;;3.15;0.80;;;;;;;16.37;100.00;101404.13;5034874;28;20037;-47
2023/07/20 06:47:20;;;;;;;1.98;0.93;;;;;;;17.00;100.00;101489.72;5037216;28;20104;-46
2023/07/20 06:49:45;;;;;;;2.65;1.27;;;;;;;17.11;100.00;101490.91;5028339;28;20132;-47
2023/07/20 06:52:10;;;;;;;1.95;1.13;;;;;;;17.24;100.00;101483.19;5053144;28;20024;-49
2023/07/20 06:54:36;;;;;;;1.90;0.75;;;;;;;16.89;100.00;101415.78;5051899;28;20041;-49
2023/07/20 06:57:01;;;;;;;1.95;1.00;;;;;;;17.43;100.00;101494.63;5033972;28;20037;-51
2023/07/20 06:59:27;;;;;;;1.13;0.90;;;;;;;17.54;100.00;101494.97;5033437;28;20092;-49
2023/07/20 07:01:52;;;;;;;1.85;1.20;;;;;;;17.60;100.00;101494.66;5047058;28;20036;-49
2023/07/20 07:04:17;;;;;;;1.25;0.98;;;;;;;16.96;100.00;101387.09;5031586;28;20029;-53
2023/07/20 07:06:44;;;;;;;2.92;1.13;;;;;;;17.32;100.00;101433.97;5020059;28;20115;-48
2023/07/20 07:09:09;;;;;;;1.80;0.80;;;;;;;17.81;100.00;101516.66;5052102;28;20439;-47
2023/07/20 07:11:34;;;;;;;1.42;1.00;;;;;;;17.63;100.00;101462.56;5047039;28;20088;-48
2023/07/20 07:14:00;;;;;;;1.80;0.85;;;;;;;17.63;100.00;101451.91;5033187;28;20453;-49
2023/07/20 07:16:25;;;;;;;2.00;0.82;;;;;;;18.24;100.00;101513.47;5033012;28;20030;-50
2023/07/20 07:18:51;;;;;;;3.03;1.20;;;;;;;18.04;100.00;101444.41;5042408;28;20029;-48
2023/07/20 07:21:16;;;;;;;2.10;0.93;;;;;;;18.46;100.00;101510.53;5051154;28;20041;-48
2023/07/20 07:23:43;;;;;;;1.23;0.73;;;;;;;18.47;100.00;101504.25;5031176;28;20026;-48
2023/07/20 07:26:08;;;;;;;1.08;0.80;;;;;;;18.10;100.00;101464.53;5040467;28;20132;-48
2023/07/20 07:28:33;;;;;;;2.28;0.80;;;;;;;18.53;100.00;101527.94;5048984;28;20507;-48
2023/07/20 07:30:59;;;;;;;1.30;1.17;;;;;;;18.39;100.00;101450.47;5032244;28;20186;-47
2023/07/20 07:33:24;;;;;;;2.35;0.70;;;;;;;18.98;100.00;101521.84;5034077;28;20086;-51
2023/07/20 07:35:52;;;;;;;1.00;0.90;;;;;;;19.23;100.00;101510.66;5048018;28;20484;-47
2023/07/20 07:38:18;;;;;;;1.33;0.75;;;;;;;19.21;100.00;101467.16;5044689;28;20048;-48
2023/07/20 07:40:43;;;;;;;1.15;0.80;;;;;;;20.13;100.00;101525.75;5033733;28;20037;-50
2023/07/20 07:43:09;;;;;;;2.17;0.77;;;;;;;20.38;100.00;101469.81;5046583;28;20400;-48
2023/07/20 07:45:37;;;;;;;0.75;0.70;;;;;;;20.65;100.00;101470.75;5034775;28;20408;-51
2023/07/20 07:48:04;;;;;;;3.75;0.80;;;;;;;21.76;100.00;101549.06;5039857;28;20051;-49
2023/07/20 07:50:29;;;;;;;2.47;0.90;;;;;;;21.64;100.00;101529.31;5041778;28;20041;-50
2023/07/20 07:52:55;;;;;;;1.20;0.85;;;;;;;22.19;100.00;101557.72;5032365;28;20103;-50
2023/07/20 07:55:20;;;;;;;0.90;0.82;;;;;;;22.44;100.00;101534.44;5044697;28;20143;-48
2023/07/20 07:57:47;;;;;;;3.17;0.80;;;;;;;22.48;100.00;101510.06;5039179;28;20040;-50
2023/07/20 08:00:14;;;;;;;2.17;0.73;;;;;;;23.41;100.00;101556.03;5031828;28;20052;-51
2023/07/20 08:02:41;;;;;;;6.45;1.15;;;;;;;23.75;100.00;101568.69;5032239;28;20061;-54
2023/07/20 08:05:07;;;;;;;1.60;0.82;;;;;;;23.89;100.00;101573.00;5036683;28;20022;-50
2023/07/20 08:07:32;;;;;;;1.65;0.90;;;;;;;24.16;100.00;101570.06;5032319;28;20099;-50
2023/07/20 08:09:57;;;;;;;0.93;0.80;;;;;;;24.55;100.00;101570.47;5032270;28;20029;-50
2023/07/20 08:12:23;;;;;;;0.95;0.82;;;;;;;24.10;100.00;101582.16;5047792;28;20033;-49
2023/07/20 08:14:48;;;;;;;3.00;0.90;;;;;;;23.89;100.00;101571.19;5032302;28;20467;-51
2023/07/20 08:17:14;;;;;;;2.75;0.90;;;;;;;23.24;100.00;101518.81;5047540;28;20037;-51
2023/07/20 08:19:41;;;;;;;1.90;0.82;;;;;;;22.49;100.00;101512.66;5030787;28;20041;-53
2023/07/20 08:22:07;;;;;;;0.93;0.60;;;;;;;21.53;100.00;101504.22;5031993;28;20029;-51
2023/07/20 08:24:32;;;;;;;1.65;0.90;;;;;;;20.70;100.00;101503.41;5031971;28;20404;-50
2023/07/20 08:26:57;;;;;;;2.33;0.70;;;;;;;20.21;100.00;101555.53;5031988;28;20053;-52
2023/07/20 08:29:23;;;;;;;0.50;0.50;;;;;;;19.14;100.00;101485.38;5032149;28;20034;-53
2023/07/20 08:31:49;;;;;;;1.75;0.80;;;;;;;18.72;100.00;101485.13;5032046;28;20033;-51
2023/07/20 08:34:14;;;;;;;3.58;1.15;;;;;;;18.77;100.00;101478.56;5036170;28;20539;-52
2023/07/20 08:36:40;;;;;;;3.40;0.95;;;;;;;19.72;100.00;101549.59;5032151;28;20040;-53
2023/07/20 08:39:05;;;;;;;2.22;0.75;;;;;;;20.75;100.00;101538.75;5050389;28;20041;-49
2023/07/20 08:41:30;;;;;;;1.15;0.75;;;;;;;21.93;100.00;101550.63;5051788;28;20083;-49
2023/07/20 08:43:57;;;;;;;1.45;0.52;;;;;;;22.41;100.00;101507.00;5051898;28;20479;-50
2023/07/20 08:46:23;;;;;;;1.05;0.73;;;;;;;22.91;100.00;101487.28;5034089;28;20025;-48
2023/07/20 08:48:48;;;;;;;0.75;0.75;;;;;;;23.83;100.00;101562.72;5051575;28;20098;-53
2023/07/20 08:51:15;;;;;;;3.17;0.70;;;;;;;23.56;100.00;101495.78;5034684;28;20033;-51
2023/07/20 08:53:41;;;;;;;0.55;0.45;;;;;;;24.38;100.00;101575.47;5033448;28;20052;-49
2023/07/20 08:56:06;;;;;;;0.55;0.50;;;;;;;24.37;100.00;101519.97;5035456;28;20449;-48
2023/07/20 08:58:34;;;;;;;0.50;0.40;;;;;;;24.21;100.00;101511.38;5051148;28;20072;-52
2023/07/20 09:01:00;;;;;;;1.23;0.70;;;;;;;24.75;100.00;101582.34;5050548;28;20473;-55
2023/07/20 09:03:26;;;;;;;3.05;0.52;;;;;;;25.02;100.00;101587.38;5034060;28;20029;-53
2023/07/20 09:05:52;;;;;;;2.35;0.68;;;;;;;25.08;100.00;101573.41;5035658;28;20029;-50
2023/07/20 09:08:17;;;;;;;0.90;0.40;;;;;;;24.89;100.00;101592.06;5034286;28;20038;-47
2023/07/20 09:10:42;;;;;;;1.52;0.77;;;;;;;24.95;100.00;101576.25;5035158;28;20037;-51
2023/07/20 09:13:08;;;;;;;1.00;0.40;;;;;;;25.23;100.00;101584.78;5035433;28;20041;-52
2023/07/20 09:15:33;;;;;;;3.40;0.50;;;;;;;25.04;100.00;101586.28;5035914;28;20033;-50
2023/07/20 09:18:01;;;;;;;0.90;0.50;;;;;;;24.97;100.00;101571.59;5035185;28;20034;-50
2023/07/20 09:20:27;;;;;;;1.85;0.40;;;;;;;25.43;100.00;101565.13;5034180;28;20523;-54
2023/07/20 09:22:52;;;;;;;1.27;0.63;;;;;;;25.34;100.00;101574.81;5035340;28;20037;-51
2023/07/20 09:25:22;;;;;;;1.38;0.45;;;;;;;24.66;100.00;101523.00;5035237;28;20033;-51
2023/07/20 09:27:48;;;;;;;1.23;0.50;;;;;;;25.14;100.00;101575.59;5035542;28;20072;-51
2023/07/20 09:30:15;;;;;;;0.40;0.30;;;;;;;25.34;100.00;101582.91;5055171;28;20033;-50
2023/07/20 09:32:43;;;;;;;0.40;0.40;;;;;;;25.72;100.00;101585.16;5055076;28;20033;-51
2023/07/20 09:35:22;;;;;;;0.38;0.32;;;;;;;25.99;100.00;101544.19;5055062;28;20040;-49
2023/07/20 09:37:54;;;;;;;0.40;0.40;;;;;;;25.58;100.00;101570.13;5037125;28;20461;-49
2023/07/20 09:40:20;;;;;;;1.85;0.43;;;;;;;24.68;100.00;101521.03;5054990;28;20029;-49
2023/07/20 09:42:45;;;;;;;0.80;0.35;;;;;;;23.97;100.00;101536.47;5036907;28;20029;-49
2023/07/20 09:45:11;;;;;;;1.85;0.55;;;;;;;23.63;100.00;101576.81;5053467;28;20048;-52
2023/07/20 09:47:41;;;;;;;0.77;0.40;;;;;;;23.03;100.00;101574.94;5034984;28;20045;-49
2023/07/20 09:50:13;;;;;;;1.25;0.50;;;;;;;22.53;100.00;101527.59;5034926;28;20116;-49
2023/07/20 09:52:44;;;;;;;1.85;0.50;;;;;;;23.43;100.00;101559.50;5049445;28;20120;-51
2023/07/20 09:55:09;;;;;;;;;;;;;;;23.82;100.00;101577.13;5033837;28;20503;-51
2023/07/20 09:57:35;;;;;;;1.75;0.43;;;;;;;23.97;100.00;101528.41;5050039;28;19917;-51
2023/07/20 10:00:13;;;;;;;0.90;0.40;;;;;;;24.31;100.00;101518.63;5034804;28;20029;-48
2023/07/20 10:02:44;;;;;;;1.67;0.50;;;;;;;24.95;100.00;101567.31;5044006;28;20393;-49
2023/07/20 10:05:12;;;;;;;0.70;0.57;;;;;;;25.28;100.00;101569.94;5054248;28;20506;-52
2023/07/20 10:07:43;;;;;;;2.08;0.80;;;;;;;25.01;100.00;101581.16;5043892;28;20044;-48
2023/07/20 10:10:10;;;;;;;2.15;0.45;;;;;;;24.99;100.00;101587.63;5034307;28;20116;-50
2023/07/20 10:12:37;;;;;;;0.77;0.40;;;;;;;25.22;100.00;101591.16;5016870;28;20033;-48
2023/07/20 10:15:13;;;;;;;1.45;0.52;;;;;;;26.25;100.00;101581.47;5016709;28;20127;-50
2023/07/20 10:17:49;;;;;;;0.47;0.40;;;;;;;26.33;100.00;101537.59;5033148;28;20026;-48
2023/07/20 10:20:16;;;;;;;2.95;0.82;;;;;;;26.85;100.00;101587.06;5033002;28;20021;-49
2023/07/20 10:22:43;;;;;;;1.27;0.90;;;;;;;26.39;100.00;101515.47;5039026;28;20029;-50
2023/07/20 10:25:09;;;;;;;1.08;0.60;;;;;;;26.57;100.00;101516.56;5035449;28;20389;-50
2023/07/20 10:27:34;;;;;;;0.70;0.43;;;;;;;26.61;100.00;101528.81;5033911;28;20061;-55
2023/07/20 10:30:01;;;;;;;0.95;0.50;;;;;;;26.55;100.00;101532.06;5033161;28;20052;-50
2023/07/20 10:32:26;;;;;;;0.55;0.50;;;;;;;26.94;100.00;101578.97;5032431;28;20473;-48
2023/07/20 10:34:52;;;;;;;0.50;0.40;;;;;;;26.86;100.00;101522.09;5033386;28;20099;-48
2023/07/20 10:37:47;;;;;;;0.40;0.40;;;;;;;26.28;100.00;101588.44;5032554;28;20108;-52
2023/07/20 10:40:33;;;;;;;0.73;0.52;;;;;;;25.29;100.00;101570.81;5032832;28;20037;-53
2023/07/20 10:43:09;;;;;;;0.50;0.50;;;;;;;24.45;100.00;101577.56;5031984;28;20041;-53
2023/07/20 10:45:35;;;;;;;0.80;0.50;;;;;;;24.64;100.00;101564.34;5033710;28;20038;-52
2023/07/20 10:48:04;;;;;;;0.47;0.40;;;;;;;23.92;100.00;101536.00;5033813;28;20037;-50
2023/07/20 10:50:30;;;;;;;1.10;0.38;;;;;;;23.91;100.00;101509.19;5033922;28;20034;-52
2023/07/20 10:53:10;;;;;;;3.40;0.43;;;;;;;25.08;100.00;101573.41;5049101;28;20035;-49
2023/07/20 10:55:35;;;;;;;2.13;0.50;;;;;;;25.20;100.00;101499.66;5015939;28;20048;-50
2023/07/20 10:58:14;;;;;;;1.02;0.50;;;;;;;25.19;100.00;101560.78;5033333;28;20033;-54
2023/07/20 11:01:01;;;;;;;1.88;0.40;;;;;;;24.61;100.00;101548.44;5015801;28;20446;-51
2023/07/20 11:03:47;;;;;;;1.98;0.80;;;;;;;24.96;100.00;101560.94;5032397;28;20080;-53
2023/07/20 11:06:25;;;;;;;0.57;0.40;;;;;;;24.98;100.00;101567.94;5032928;28;20049;-52
2023/07/20 11:09:16;;;;;;;0.82;0.80;;;;;;;24.92;100.00;101562.19;5041108;28;20060;-56
2023/07/20 11:11:43;;;;;;;1.13;0.50;;;;;;;24.88;100.00;101502.31;5050809;28;20428;-52
2023/07/20 11:14:28;;;;;;;1.85;0.40;;;;;;;25.14;100.00;101554.91;5052877;28;20111;-54
2023/07/20 11:16:54;;;;;;;2.25;0.60;;;;;;;25.57;100.00;101551.38;5035697;28;20098;-55